Perry, Florida
Current Conditions -  °F | °C
As of 10:55 PM on Friday 19 Dec 2014 (Local Time) from K40J Reporting Station
Clear Clear  
Wind Chill: 54°   Ceiling: Unl
Heat Index: 54°   Visibility: 10mi
Dew Point: 49°   Wind: 5mph
Humidity: 85%   Direction: 10°N
Pressure: 30.12"   Gusts: NA
Location:  30.12°N, 83.58°W
Report Text: K40J 200355Z AUTO 01004KT 10SM CLR 12/10 A3012 RMK AO2 T01200095 402040051
Loading
Personal Weather Stations






























Interactive Weather Map New forecast layout! Learn more

10-Day Weather Forecast

Advertisements
Track Severe Weather on mobile